This is the latest recevied weather packets stored in our database for station/object SQ7IQO. If no packets are shown the sender has not sent any weather packets the latest 10 day(s).
| Time | Temp. | Humidity | Pressure | Rain* | Wind** | Luminosity | Snow |
|---|---|---|---|---|---|---|---|
| 1788007901 | 22.22° C | 66% | 1014.9 hPa | 0 mm | 1.79 m/s, ° | - | - |
| 1788007841 | 22.78° C | 65% | 1014.9 hPa | 0 mm | 1.34 m/s, ° | - | - |
| 1788007781 | 23.89° C | 64% | 1014.9 hPa | 0 mm | 1.34 m/s, ° | - | - |
| 1788007722 | 23.33° C | 64% | 1014.9 hPa | 0 mm | 0.45 m/s, ° | - | - |
| 1788007662 | 24.44° C | 61% | 1014.9 hPa | 0 mm | 1.34 m/s, ° | - | - |
| 1788007602 | 24.44° C | 62% | 1014.9 hPa | 0 mm | 0.89 m/s, ° | - | - |
| 1788007542 | 23.89° C | 64% | 1014.9 hPa | 0 mm | 0.89 m/s, ° | - | - |
| 1788007482 | 23.89° C | 65% | 1014.9 hPa | 0 mm | 0.89 m/s, ° | - | - |
| 1788007422 | 23.33° C | 66% | 1014.9 hPa | 0 mm | 1.34 m/s, ° | - | - |
| 1788007362 | 23.33° C | 67% | 1015 hPa | 0 mm | 1.79 m/s, ° | - | - |
| 1788007302 | 22.22° C | 67% | 1015 hPa | 0 mm | 0.89 m/s, ° | - | - |
| 1788007242 | 21.67° C | 69% | 1014.9 hPa | 0 mm | 0.89 m/s, ° | - | - |
| 1788007182 | 22.22° C | 67% | 1014.9 hPa | 0 mm | 0.89 m/s, ° | - | - |
| 1788007121 | 22.22° C | 68% | 1014.9 hPa | 0 mm | 1.34 m/s, ° | - | - |
| 1788007061 | 22.78° C | 67% | 1014.9 hPa | 0 mm | 0.89 m/s, ° | - | - |
| 1788007001 | 23.33° C | 66% | 1014.9 hPa | 0 mm | 1.34 m/s, ° | - | - |
| 1788006941 | 23.33° C | 67% | 1014.9 hPa | 0 mm | 0 m/s | - | - |
| 1788006881 | 23.33° C | 65% | 1014.9 hPa | 0 mm | 0.89 m/s, ° | - | - |
| 1788006821 | 23.33° C | 64% | 1014.9 hPa | 0 mm | 0.89 m/s, ° | - | - |
| 1788006761 | 22.78° C | 66% | 1014.8 hPa | 0 mm | 0.89 m/s, ° | - | - |
| 1788006701 | 22.22° C | 69% | 1014.9 hPa | 0 mm | 0.89 m/s, ° | - | - |
| 1788006641 | 21.67° C | 69% | 1014.9 hPa | 0 mm | 0.89 m/s, ° | - | - |
| 1788006582 | 21.67° C | 70% | 1014.9 hPa | 0 mm | 1.79 m/s, ° | - | - |
| 1788006521 | 21.67° C | 69% | 1014.9 hPa | 0 mm | 0.89 m/s, ° | - | - |
| 1788006461 | 22.22° C | 68% | 1014.9 hPa | 0 mm | 1.79 m/s, ° | - | - |
* Rain latest hour (hover to see other rain measurements)
** Current wind speed in m/s (hover to see current wind gust speed)